sensor_id;sensor_type;location;lat;lon;timestamp;P1;durP1;ratioP1;P2;durP2;ratioP2
4732;SDS011;2380;53.668;10.008;2023-12-29T00:01:28;5.63;;;1.87;;
4732;SDS011;2380;53.668;10.008;2023-12-29T00:04:01;2.80;;;1.30;;
4732;SDS011;2380;53.668;10.008;2023-12-29T00:06:31;2.10;;;1.17;;
4732;SDS011;2380;53.668;10.008;2023-12-29T00:09:14;4.17;;;1.50;;
4732;SDS011;2380;53.668;10.008;2023-12-29T00:11:46;9.03;;;2.13;;
4732;SDS011;2380;53.668;10.008;2023-12-29T00:14:16;5.83;;;1.53;;
4732;SDS011;2380;53.668;10.008;2023-12-29T00:16:46;6.00;;;1.50;;
4732;SDS011;2380;53.668;10.008;2023-12-29T00:19:18;4.30;;;1.23;;
4732;SDS011;2380;53.668;10.008;2023-12-29T00:21:47;5.93;;;1.67;;
4732;SDS011;2380;53.668;10.008;2023-12-29T00:24:17;8.87;;;2.67;;
4732;SDS011;2380;53.668;10.008;2023-12-29T00:26:47;10.90;;;2.40;;
4732;SDS011;2380;53.668;10.008;2023-12-29T00:29:16;9.93;;;2.63;;
4732;SDS011;2380;53.668;10.008;2023-12-29T00:31:46;13.17;;;2.80;;
4732;SDS011;2380;53.668;10.008;2023-12-29T00:34:18;14.47;;;2.57;;
4732;SDS011;2380;53.668;10.008;2023-12-29T00:36:48;4.30;;;1.87;;
4732;SDS011;2380;53.668;10.008;2023-12-29T00:39:18;3.73;;;1.50;;
4732;SDS011;2380;53.668;10.008;2023-12-29T00:41:55;7.97;;;1.63;;
4732;SDS011;2380;53.668;10.008;2023-12-29T00:44:25;9.03;;;2.23;;
4732;SDS011;2380;53.668;10.008;2023-12-29T00:46:55;7.50;;;1.40;;
4732;SDS011;2380;53.668;10.008;2023-12-29T00:49:27;6.30;;;2.63;;
4732;SDS011;2380;53.668;10.008;2023-12-29T00:51:56;15.30;;;2.40;;
4732;SDS011;2380;53.668;10.008;2023-12-29T00:54:26;6.97;;;2.53;;
4732;SDS011;2380;53.668;10.008;2023-12-29T00:56:58;4.50;;;1.77;;
4732;SDS011;2380;53.668;10.008;2023-12-29T00:59:28;6.13;;;2.00;;
4732;SDS011;2380;53.668;10.008;2023-12-29T01:01:58;11.27;;;2.80;;
4732;SDS011;2380;53.668;10.008;2023-12-29T01:04:30;13.07;;;2.50;;
4732;SDS011;2380;53.668;10.008;2023-12-29T01:06:59;13.40;;;3.13;;
4732;SDS011;2380;53.668;10.008;2023-12-29T01:09:29;12.90;;;2.90;;
4732;SDS011;2380;53.668;10.008;2023-12-29T01:11:59;4.23;;;1.80;;
4732;SDS011;2380;53.668;10.008;2023-12-29T01:14:28;10.03;;;2.50;;
4732;SDS011;2380;53.668;10.008;2023-12-29T01:16:58;5.33;;;2.20;;
4732;SDS011;2380;53.668;10.008;2023-12-29T01:19:30;10.43;;;3.60;;
4732;SDS011;2380;53.668;10.008;2023-12-29T01:22:00;5.43;;;2.07;;
4732;SDS011;2380;53.668;10.008;2023-12-29T01:24:30;7.10;;;2.10;;
4732;SDS011;2380;53.668;10.008;2023-12-29T01:27:11;4.90;;;1.47;;
4732;SDS011;2380;53.668;10.008;2023-12-29T01:29:40;8.63;;;2.43;;
4732;SDS011;2380;53.668;10.008;2023-12-29T01:32:10;9.90;;;2.47;;
4732;SDS011;2380;53.668;10.008;2023-12-29T01:34:42;16.23;;;2.80;;
4732;SDS011;2380;53.668;10.008;2023-12-29T01:37:12;9.10;;;2.20;;
4732;SDS011;2380;53.668;10.008;2023-12-29T01:39:42;3.93;;;1.50;;
4732;SDS011;2380;53.668;10.008;2023-12-29T01:42:12;1.87;;;0.90;;
4732;SDS011;2380;53.668;10.008;2023-12-29T01:44:41;18.47;;;4.03;;
4732;SDS011;2380;53.668;10.008;2023-12-29T01:47:12;9.20;;;2.60;;
4732;SDS011;2380;53.668;10.008;2023-12-29T01:49:46;8.53;;;1.80;;
4732;SDS011;2380;53.668;10.008;2023-12-29T01:52:16;4.53;;;1.67;;
4732;SDS011;2380;53.668;10.008;2023-12-29T01:54:47;7.37;;;2.40;;
4732;SDS011;2380;53.668;10.008;2023-12-29T01:57:19;12.37;;;3.50;;
4732;SDS011;2380;53.668;10.008;2023-12-29T01:59:49;8.17;;;2.27;;
4732;SDS011;2380;53.668;10.008;2023-12-29T02:02:19;9.03;;;2.80;;
4732;SDS011;2380;53.668;10.008;2023-12-29T02:04:51;12.40;;;2.07;;
4732;SDS011;2380;53.668;10.008;2023-12-29T02:07:21;4.40;;;2.57;;
4732;SDS011;2380;53.668;10.008;2023-12-29T02:09:51;8.90;;;2.80;;
4732;SDS011;2380;53.668;10.008;2023-12-29T02:12:21;8.03;;;3.13;;
4732;SDS011;2380;53.668;10.008;2023-12-29T02:14:50;15.20;;;2.10;;
4732;SDS011;2380;53.668;10.008;2023-12-29T02:17:21;10.60;;;2.23;;
4732;SDS011;2380;53.668;10.008;2023-12-29T02:19:56;11.40;;;1.80;;
4732;SDS011;2380;53.668;10.008;2023-12-29T02:22:26;7.73;;;2.53;;
4732;SDS011;2380;53.668;10.008;2023-12-29T02:24:59;3.80;;;1.10;;
4732;SDS011;2380;53.668;10.008;2023-12-29T02:27:31;5.00;;;2.03;;
4732;SDS011;2380;53.668;10.008;2023-12-29T02:30:08;7.70;;;1.00;;
4732;SDS011;2380;53.668;10.008;2023-12-29T02:32:41;5.53;;;1.77;;
4732;SDS011;2380;53.668;10.008;2023-12-29T02:35:20;6.10;;;1.90;;
4732;SDS011;2380;53.668;10.008;2023-12-29T02:37:51;2.27;;;1.40;;
4732;SDS011;2380;53.668;10.008;2023-12-29T02:40:24;3.33;;;1.20;;
4732;SDS011;2380;53.668;10.008;2023-12-29T02:42:54;14.23;;;2.03;;
4732;SDS011;2380;53.668;10.008;2023-12-29T02:45:24;6.23;;;1.90;;
4732;SDS011;2380;53.668;10.008;2023-12-29T02:47:54;6.07;;;2.60;;
4732;SDS011;2380;53.668;10.008;2023-12-29T02:50:24;6.20;;;1.70;;
4732;SDS011;2380;53.668;10.008;2023-12-29T02:52:54;4.07;;;1.50;;
4732;SDS011;2380;53.668;10.008;2023-12-29T02:55:26;10.63;;;2.20;;
4732;SDS011;2380;53.668;10.008;2023-12-29T02:57:56;7.30;;;2.10;;
4732;SDS011;2380;53.668;10.008;2023-12-29T03:00:26;6.93;;;1.87;;
4732;SDS011;2380;53.668;10.008;2023-12-29T03:02:56;8.43;;;1.90;;
4732;SDS011;2380;53.668;10.008;2023-12-29T03:05:25;12.60;;;2.73;;
4732;SDS011;2380;53.668;10.008;2023-12-29T03:07:55;4.80;;;1.33;;
4732;SDS011;2380;53.668;10.008;2023-12-29T03:10:28;4.73;;;1.67;;
4732;SDS011;2380;53.668;10.008;2023-12-29T03:12:57;9.37;;;1.70;;
4732;SDS011;2380;53.668;10.008;2023-12-29T03:15:27;9.60;;;1.83;;
4732;SDS011;2380;53.668;10.008;2023-12-29T03:17:56;3.50;;;1.10;;
4732;SDS011;2380;53.668;10.008;2023-12-29T03:20:27;18.60;;;3.70;;
4732;SDS011;2380;53.668;10.008;2023-12-29T03:22:56;5.93;;;1.70;;
4732;SDS011;2380;53.668;10.008;2023-12-29T03:25:28;3.10;;;0.90;;
4732;SDS011;2380;53.668;10.008;2023-12-29T03:27:58;3.53;;;0.93;;
4732;SDS011;2380;53.668;10.008;2023-12-29T03:30:28;8.20;;;1.17;;
4732;SDS011;2380;53.668;10.008;2023-12-29T03:32:58;6.43;;;1.50;;
4732;SDS011;2380;53.668;10.008;2023-12-29T03:35:30;6.70;;;1.40;;
4732;SDS011;2380;53.668;10.008;2023-12-29T03:38:00;3.83;;;0.97;;
4732;SDS011;2380;53.668;10.008;2023-12-29T03:40:32;3.40;;;1.07;;
4732;SDS011;2380;53.668;10.008;2023-12-29T03:43:02;7.63;;;0.80;;
4732;SDS011;2380;53.668;10.008;2023-12-29T03:45:32;6.40;;;1.50;;
4732;SDS011;2380;53.668;10.008;2023-12-29T03:48:01;4.37;;;1.30;;
4732;SDS011;2380;53.668;10.008;2023-12-29T03:50:32;4.77;;;1.60;;
4732;SDS011;2380;53.668;10.008;2023-12-29T03:53:01;2.13;;;1.00;;
4732;SDS011;2380;53.668;10.008;2023-12-29T03:55:34;3.30;;;0.90;;
4732;SDS011;2380;53.668;10.008;2023-12-29T03:58:04;3.20;;;1.50;;
4732;SDS011;2380;53.668;10.008;2023-12-29T04:00:34;7.03;;;1.20;;
4732;SDS011;2380;53.668;10.008;2023-12-29T04:03:04;1.37;;;0.70;;
4732;SDS011;2380;53.668;10.008;2023-12-29T04:05:34;4.43;;;1.60;;
4732;SDS011;2380;53.668;10.008;2023-12-29T04:08:04;2.23;;;0.70;;
4732;SDS011;2380;53.668;10.008;2023-12-29T04:10:37;4.47;;;1.83;;
4732;SDS011;2380;53.668;10.008;2023-12-29T04:13:06;3.00;;;0.80;;
4732;SDS011;2380;53.668;10.008;2023-12-29T04:15:36;6.53;;;1.53;;
4732;SDS011;2380;53.668;10.008;2023-12-29T04:18:06;2.57;;;0.70;;
4732;SDS011;2380;53.668;10.008;2023-12-29T04:20:35;1.70;;;0.70;;
4732;SDS011;2380;53.668;10.008;2023-12-29T04:23:06;6.00;;;0.93;;
4732;SDS011;2380;53.668;10.008;2023-12-29T04:25:38;4.37;;;0.80;;
4732;SDS011;2380;53.668;10.008;2023-12-29T04:28:08;1.63;;;0.53;;
4732;SDS011;2380;53.668;10.008;2023-12-29T04:30:38;1.70;;;0.40;;
4732;SDS011;2380;53.668;10.008;2023-12-29T04:33:07;2.90;;;0.60;;
4732;SDS011;2380;53.668;10.008;2023-12-29T04:35:37;2.50;;;0.77;;
4732;SDS011;2380;53.668;10.008;2023-12-29T04:38:07;2.60;;;0.93;;
4732;SDS011;2380;53.668;10.008;2023-12-29T04:40:39;3.23;;;0.80;;
4732;SDS011;2380;53.668;10.008;2023-12-29T04:43:09;5.57;;;1.57;;
4732;SDS011;2380;53.668;10.008;2023-12-29T04:45:39;1.63;;;0.73;;
4732;SDS011;2380;53.668;10.008;2023-12-29T04:48:09;1.33;;;0.30;;
4732;SDS011;2380;53.668;10.008;2023-12-29T04:50:38;2.60;;;0.77;;
4732;SDS011;2380;53.668;10.008;2023-12-29T04:53:08;2.80;;;0.70;;
4732;SDS011;2380;53.668;10.008;2023-12-29T04:55:40;1.80;;;0.67;;
4732;SDS011;2380;53.668;10.008;2023-12-29T04:58:10;1.40;;;0.47;;
4732;SDS011;2380;53.668;10.008;2023-12-29T05:00:39;1.60;;;0.70;;
4732;SDS011;2380;53.668;10.008;2023-12-29T05:03:09;1.70;;;0.80;;
4732;SDS011;2380;53.668;10.008;2023-12-29T05:05:39;1.77;;;0.60;;
4732;SDS011;2380;53.668;10.008;2023-12-29T05:08:09;1.80;;;0.50;;
4732;SDS011;2380;53.668;10.008;2023-12-29T05:10:41;4.17;;;0.70;;
4732;SDS011;2380;53.668;10.008;2023-12-29T05:13:11;2.53;;;1.03;;
4732;SDS011;2380;53.668;10.008;2023-12-29T05:15:40;4.80;;;0.93;;
4732;SDS011;2380;53.668;10.008;2023-12-29T05:18:10;3.70;;;0.73;;
4732;SDS011;2380;53.668;10.008;2023-12-29T05:20:40;2.80;;;0.80;;
4732;SDS011;2380;53.668;10.008;2023-12-29T05:23:09;2.43;;;0.97;;
4732;SDS011;2380;53.668;10.008;2023-12-29T05:25:42;3.30;;;0.70;;
4732;SDS011;2380;53.668;10.008;2023-12-29T05:28:11;4.20;;;1.13;;
4732;SDS011;2380;53.668;10.008;2023-12-29T05:30:41;6.43;;;1.17;;
4732;SDS011;2380;53.668;10.008;2023-12-29T05:33:11;2.77;;;0.80;;
4732;SDS011;2380;53.668;10.008;2023-12-29T05:35:40;6.57;;;1.00;;
4732;SDS011;2380;53.668;10.008;2023-12-29T05:38:10;3.87;;;0.90;;
4732;SDS011;2380;53.668;10.008;2023-12-29T05:40:42;2.53;;;0.57;;
4732;SDS011;2380;53.668;10.008;2023-12-29T05:43:12;1.40;;;0.50;;
4732;SDS011;2380;53.668;10.008;2023-12-29T05:45:42;3.13;;;0.73;;
4732;SDS011;2380;53.668;10.008;2023-12-29T05:48:11;1.73;;;0.40;;
4732;SDS011;2380;53.668;10.008;2023-12-29T05:50:41;2.73;;;0.60;;
4732;SDS011;2380;53.668;10.008;2023-12-29T05:53:11;8.70;;;0.80;;
4732;SDS011;2380;53.668;10.008;2023-12-29T05:55:44;2.30;;;1.07;;
4732;SDS011;2380;53.668;10.008;2023-12-29T05:58:14;3.37;;;0.90;;
4732;SDS011;2380;53.668;10.008;2023-12-29T06:00:44;4.73;;;1.30;;
4732;SDS011;2380;53.668;10.008;2023-12-29T06:03:13;2.40;;;0.83;;
4732;SDS011;2380;53.668;10.008;2023-12-29T06:05:43;2.47;;;1.10;;
4732;SDS011;2380;53.668;10.008;2023-12-29T06:08:13;2.47;;;0.87;;
4732;SDS011;2380;53.668;10.008;2023-12-29T06:10:46;3.77;;;1.90;;
4732;SDS011;2380;53.668;10.008;2023-12-29T06:13:15;2.73;;;0.90;;
4732;SDS011;2380;53.668;10.008;2023-12-29T06:15:45;7.13;;;1.33;;
4732;SDS011;2380;53.668;10.008;2023-12-29T06:18:15;2.57;;;1.40;;
4732;SDS011;2380;53.668;10.008;2023-12-29T06:20:45;3.83;;;0.97;;
4732;SDS011;2380;53.668;10.008;2023-12-29T06:23:14;9.13;;;1.83;;
4732;SDS011;2380;53.668;10.008;2023-12-29T06:25:47;9.90;;;1.00;;
4732;SDS011;2380;53.668;10.008;2023-12-29T06:28:17;3.90;;;0.87;;
4732;SDS011;2380;53.668;10.008;2023-12-29T06:30:46;2.47;;;0.93;;
4732;SDS011;2380;53.668;10.008;2023-12-29T06:33:16;3.80;;;1.10;;
4732;SDS011;2380;53.668;10.008;2023-12-29T06:35:47;6.87;;;1.60;;
4732;SDS011;2380;53.668;10.008;2023-12-29T06:38:17;7.17;;;1.57;;
4732;SDS011;2380;53.668;10.008;2023-12-29T06:40:49;5.60;;;1.40;;
4732;SDS011;2380;53.668;10.008;2023-12-29T06:43:19;6.50;;;1.10;;
4732;SDS011;2380;53.668;10.008;2023-12-29T06:45:49;5.40;;;0.90;;
4732;SDS011;2380;53.668;10.008;2023-12-29T06:48:18;10.20;;;2.17;;
4732;SDS011;2380;53.668;10.008;2023-12-29T06:50:48;3.30;;;0.90;;
4732;SDS011;2380;53.668;10.008;2023-12-29T06:53:18;3.20;;;1.23;;
4732;SDS011;2380;53.668;10.008;2023-12-29T06:55:50;2.50;;;1.50;;
4732;SDS011;2380;53.668;10.008;2023-12-29T06:58:20;7.33;;;1.23;;
4732;SDS011;2380;53.668;10.008;2023-12-29T07:00:50;9.07;;;1.90;;
4732;SDS011;2380;53.668;10.008;2023-12-29T07:03:20;5.20;;;0.90;;
4732;SDS011;2380;53.668;10.008;2023-12-29T07:05:49;3.10;;;0.93;;
4732;SDS011;2380;53.668;10.008;2023-12-29T07:08:19;4.57;;;1.23;;
4732;SDS011;2380;53.668;10.008;2023-12-29T07:10:51;5.27;;;1.97;;
4732;SDS011;2380;53.668;10.008;2023-12-29T07:13:21;11.43;;;1.70;;
4732;SDS011;2380;53.668;10.008;2023-12-29T07:15:51;2.97;;;1.27;;
4732;SDS011;2380;53.668;10.008;2023-12-29T07:18:21;11.20;;;1.63;;
4732;SDS011;2380;53.668;10.008;2023-12-29T07:20:50;4.50;;;1.10;;
4732;SDS011;2380;53.668;10.008;2023-12-29T07:23:20;7.40;;;1.73;;
4732;SDS011;2380;53.668;10.008;2023-12-29T07:25:53;3.20;;;1.00;;
4732;SDS011;2380;53.668;10.008;2023-12-29T07:28:22;15.70;;;1.40;;
4732;SDS011;2380;53.668;10.008;2023-12-29T07:30:52;10.43;;;2.07;;
4732;SDS011;2380;53.668;10.008;2023-12-29T07:33:22;6.60;;;2.00;;
4732;SDS011;2380;53.668;10.008;2023-12-29T07:35:53;9.47;;;1.83;;
4732;SDS011;2380;53.668;10.008;2023-12-29T07:38:24;8.17;;;1.97;;
4732;SDS011;2380;53.668;10.008;2023-12-29T07:40:56;10.40;;;2.63;;
4732;SDS011;2380;53.668;10.008;2023-12-29T07:43:26;11.53;;;2.03;;
4732;SDS011;2380;53.668;10.008;2023-12-29T07:45:55;11.70;;;1.30;;
4732;SDS011;2380;53.668;10.008;2023-12-29T07:48:25;9.23;;;1.30;;
4732;SDS011;2380;53.668;10.008;2023-12-29T07:50:55;7.73;;;1.90;;
4732;SDS011;2380;53.668;10.008;2023-12-29T07:53:27;8.83;;;2.10;;
4732;SDS011;2380;53.668;10.008;2023-12-29T07:56:00;10.10;;;1.80;;
4732;SDS011;2380;53.668;10.008;2023-12-29T07:58:29;9.23;;;1.13;;
4732;SDS011;2380;53.668;10.008;2023-12-29T08:00:59;9.77;;;1.70;;
4732;SDS011;2380;53.668;10.008;2023-12-29T08:03:28;12.80;;;2.13;;
4732;SDS011;2380;53.668;10.008;2023-12-29T08:05:58;9.40;;;2.03;;
4732;SDS011;2380;53.668;10.008;2023-12-29T08:08:28;7.60;;;1.73;;
4732;SDS011;2380;53.668;10.008;2023-12-29T08:11:00;10.23;;;1.67;;
4732;SDS011;2380;53.668;10.008;2023-12-29T08:13:29;3.40;;;0.87;;
4732;SDS011;2380;53.668;10.008;2023-12-29T08:15:59;16.47;;;2.00;;
4732;SDS011;2380;53.668;10.008;2023-12-29T08:18:29;11.00;;;1.60;;
4732;SDS011;2380;53.668;10.008;2023-12-29T08:21:00;8.97;;;1.30;;
4732;SDS011;2380;53.668;10.008;2023-12-29T08:23:35;14.23;;;1.17;;
4732;SDS011;2380;53.668;10.008;2023-12-29T08:26:15;8.13;;;1.97;;
4732;SDS011;2380;53.668;10.008;2023-12-29T08:28:45;10.50;;;2.00;;
4732;SDS011;2380;53.668;10.008;2023-12-29T08:31:14;7.90;;;1.83;;
4732;SDS011;2380;53.668;10.008;2023-12-29T08:33:44;6.77;;;1.80;;
4732;SDS011;2380;53.668;10.008;2023-12-29T08:36:17;9.43;;;2.17;;
4732;SDS011;2380;53.668;10.008;2023-12-29T08:38:47;8.80;;;2.10;;
4732;SDS011;2380;53.668;10.008;2023-12-29T08:41:22;13.70;;;3.30;;
4732;SDS011;2380;53.668;10.008;2023-12-29T08:43:51;5.63;;;1.47;;
4732;SDS011;2380;53.668;10.008;2023-12-29T08:46:21;7.13;;;2.27;;
4732;SDS011;2380;53.668;10.008;2023-12-29T08:48:51;5.87;;;1.40;;
4732;SDS011;2380;53.668;10.008;2023-12-29T08:51:21;8.00;;;2.23;;
4732;SDS011;2380;53.668;10.008;2023-12-29T08:53:50;6.87;;;1.10;;
4732;SDS011;2380;53.668;10.008;2023-12-29T08:56:23;15.00;;;1.43;;
4732;SDS011;2380;53.668;10.008;2023-12-29T08:58:54;10.23;;;1.27;;
4732;SDS011;2380;53.668;10.008;2023-12-29T09:01:23;15.87;;;2.10;;
4732;SDS011;2380;53.668;10.008;2023-12-29T09:03:53;4.17;;;1.20;;
4732;SDS011;2380;53.668;10.008;2023-12-29T09:06:23;4.40;;;1.13;;
4732;SDS011;2380;53.668;10.008;2023-12-29T09:08:53;7.53;;;1.63;;
4732;SDS011;2380;53.668;10.008;2023-12-29T09:11:25;3.60;;;0.73;;
4732;SDS011;2380;53.668;10.008;2023-12-29T09:13:54;5.60;;;1.60;;
4732;SDS011;2380;53.668;10.008;2023-12-29T09:16:25;11.13;;;1.73;;
4732;SDS011;2380;53.668;10.008;2023-12-29T09:18:55;9.33;;;1.40;;
4732;SDS011;2380;53.668;10.008;2023-12-29T09:21:25;2.90;;;0.90;;
4732;SDS011;2380;53.668;10.008;2023-12-29T09:23:54;1.90;;;0.70;;
4732;SDS011;2380;53.668;10.008;2023-12-29T09:26:27;7.97;;;1.80;;
4732;SDS011;2380;53.668;10.008;2023-12-29T09:28:57;17.13;;;4.30;;
4732;SDS011;2380;53.668;10.008;2023-12-29T09:31:26;2.97;;;1.10;;
4732;SDS011;2380;53.668;10.008;2023-12-29T09:33:56;2.43;;;0.90;;
4732;SDS011;2380;53.668;10.008;2023-12-29T09:36:27;2.27;;;0.90;;
4732;SDS011;2380;53.668;10.008;2023-12-29T09:38:56;7.20;;;1.20;;
4732;SDS011;2380;53.668;10.008;2023-12-29T09:41:28;11.50;;;2.43;;
4732;SDS011;2380;53.668;10.008;2023-12-29T09:44:01;12.27;;;1.50;;
4732;SDS011;2380;53.668;10.008;2023-12-29T09:46:31;9.53;;;1.60;;
4732;SDS011;2380;53.668;10.008;2023-12-29T09:49:02;10.10;;;2.60;;
4732;SDS011;2380;53.668;10.008;2023-12-29T09:51:32;7.50;;;1.97;;
4732;SDS011;2380;53.668;10.008;2023-12-29T09:54:02;6.50;;;1.73;;
4732;SDS011;2380;53.668;10.008;2023-12-29T09:56:35;7.73;;;1.20;;
4732;SDS011;2380;53.668;10.008;2023-12-29T09:59:04;5.57;;;1.83;;
4732;SDS011;2380;53.668;10.008;2023-12-29T10:01:36;5.97;;;1.70;;
4732;SDS011;2380;53.668;10.008;2023-12-29T10:04:06;4.80;;;1.60;;
4732;SDS011;2380;53.668;10.008;2023-12-29T10:06:38;2.43;;;1.13;;
4732;SDS011;2380;53.668;10.008;2023-12-29T10:09:15;14.80;;;2.80;;
4732;SDS011;2380;53.668;10.008;2023-12-29T10:11:49;2.43;;;0.90;;
4732;SDS011;2380;53.668;10.008;2023-12-29T10:14:21;7.67;;;1.10;;
4732;SDS011;2380;53.668;10.008;2023-12-29T10:16:53;11.13;;;1.53;;
4732;SDS011;2380;53.668;10.008;2023-12-29T10:19:27;13.33;;;3.93;;
4732;SDS011;2380;53.668;10.008;2023-12-29T10:22:04;13.80;;;2.93;;
4732;SDS011;2380;53.668;10.008;2023-12-29T10:24:37;5.03;;;1.40;;
4732;SDS011;2380;53.668;10.008;2023-12-29T10:27:11;27.33;;;3.30;;
4732;SDS011;2380;53.668;10.008;2023-12-29T10:29:41;19.03;;;2.20;;
4732;SDS011;2380;53.668;10.008;2023-12-29T10:32:11;11.20;;;1.90;;
4732;SDS011;2380;53.668;10.008;2023-12-29T10:34:41;7.83;;;1.43;;
4732;SDS011;2380;53.668;10.008;2023-12-29T10:37:10;3.90;;;1.40;;
4732;SDS011;2380;53.668;10.008;2023-12-29T10:39:54;17.93;;;3.07;;
4732;SDS011;2380;53.668;10.008;2023-12-29T10:42:26;7.43;;;1.53;;
4732;SDS011;2380;53.668;10.008;2023-12-29T10:45:04;10.53;;;3.73;;
4732;SDS011;2380;53.668;10.008;2023-12-29T10:47:35;43.27;;;12.53;;
4732;SDS011;2380;53.668;10.008;2023-12-29T10:50:07;16.17;;;4.07;;
4732;SDS011;2380;53.668;10.008;2023-12-29T10:52:37;20.20;;;3.60;;
4732;SDS011;2380;53.668;10.008;2023-12-29T10:55:09;25.77;;;6.90;;
4732;SDS011;2380;53.668;10.008;2023-12-29T10:57:42;37.07;;;9.93;;
4732;SDS011;2380;53.668;10.008;2023-12-29T11:00:12;26.00;;;7.10;;
4732;SDS011;2380;53.668;10.008;2023-12-29T11:02:42;28.37;;;7.07;;
4732;SDS011;2380;53.668;10.008;2023-12-29T11:05:24;14.23;;;5.17;;
4732;SDS011;2380;53.668;10.008;2023-12-29T11:07:54;24.87;;;3.73;;
4732;SDS011;2380;53.668;10.008;2023-12-29T11:10:25;13.47;;;4.10;;
4732;SDS011;2380;53.668;10.008;2023-12-29T11:12:58;13.37;;;2.87;;
4732;SDS011;2380;53.668;10.008;2023-12-29T11:15:28;17.33;;;5.03;;
4732;SDS011;2380;53.668;10.008;2023-12-29T11:17:58;16.40;;;5.33;;
4732;SDS011;2380;53.668;10.008;2023-12-29T11:20:27;26.87;;;8.13;;
4732;SDS011;2380;53.668;10.008;2023-12-29T11:22:57;15.37;;;5.50;;
4732;SDS011;2380;53.668;10.008;2023-12-29T11:25:28;11.40;;;3.80;;
4732;SDS011;2380;53.668;10.008;2023-12-29T11:28:00;14.90;;;3.43;;
4732;SDS011;2380;53.668;10.008;2023-12-29T11:30:30;23.10;;;6.67;;
4732;SDS011;2380;53.668;10.008;2023-12-29T11:33:01;16.00;;;6.20;;
4732;SDS011;2380;53.668;10.008;2023-12-29T11:35:33;23.17;;;6.70;;
4732;SDS011;2380;53.668;10.008;2023-12-29T11:38:11;13.57;;;3.27;;
4732;SDS011;2380;53.668;10.008;2023-12-29T11:40:49;9.57;;;2.40;;
4732;SDS011;2380;53.668;10.008;2023-12-29T11:43:24;8.80;;;3.27;;
4732;SDS011;2380;53.668;10.008;2023-12-29T11:45:54;10.27;;;2.80;;
4732;SDS011;2380;53.668;10.008;2023-12-29T11:51:27;14.50;;;3.23;;
4732;SDS011;2380;53.668;10.008;2023-12-29T11:53:57;17.63;;;2.33;;
4732;SDS011;2380;53.668;10.008;2023-12-29T11:56:30;17.20;;;3.33;;
4732;SDS011;2380;53.668;10.008;2023-12-29T11:59:17;7.43;;;2.63;;
4732;SDS011;2380;53.668;10.008;2023-12-29T12:01:48;12.37;;;3.10;;
4732;SDS011;2380;53.668;10.008;2023-12-29T12:04:34;12.23;;;3.23;;
4732;SDS011;2380;53.668;10.008;2023-12-29T12:07:03;6.93;;;2.63;;
4732;SDS011;2380;53.668;10.008;2023-12-29T12:09:34;13.77;;;4.80;;
4732;SDS011;2380;53.668;10.008;2023-12-29T12:12:04;6.03;;;1.53;;
4732;SDS011;2380;53.668;10.008;2023-12-29T12:14:49;13.03;;;2.20;;
4732;SDS011;2380;53.668;10.008;2023-12-29T12:17:26;5.10;;;1.30;;
4732;SDS011;2380;53.668;10.008;2023-12-29T12:19:57;6.20;;;2.00;;
4732;SDS011;2380;53.668;10.008;2023-12-29T12:22:29;7.00;;;1.20;;
4732;SDS011;2380;53.668;10.008;2023-12-29T12:25:05;2.87;;;0.97;;
4732;SDS011;2380;53.668;10.008;2023-12-29T12:27:37;11.57;;;1.63;;
4732;SDS011;2380;53.668;10.008;2023-12-29T12:30:10;10.43;;;1.93;;
4732;SDS011;2380;53.668;10.008;2023-12-29T12:32:40;3.50;;;0.97;;
4732;SDS011;2380;53.668;10.008;2023-12-29T12:35:13;6.07;;;1.17;;
4732;SDS011;2380;53.668;10.008;2023-12-29T12:37:46;17.30;;;2.73;;
4732;SDS011;2380;53.668;10.008;2023-12-29T12:40:25;5.57;;;1.37;;
4732;SDS011;2380;53.668;10.008;2023-12-29T12:42:55;6.87;;;1.67;;
4732;SDS011;2380;53.668;10.008;2023-12-29T12:45:28;9.17;;;2.40;;
4732;SDS011;2380;53.668;10.008;2023-12-29T12:48:00;10.13;;;1.70;;
4732;SDS011;2380;53.668;10.008;2023-12-29T12:50:31;4.63;;;1.43;;
4732;SDS011;2380;53.668;10.008;2023-12-29T12:53:01;7.40;;;1.00;;
4732;SDS011;2380;53.668;10.008;2023-12-29T12:55:35;7.37;;;1.63;;
4732;SDS011;2380;53.668;10.008;2023-12-29T12:58:05;10.70;;;1.70;;
4732;SDS011;2380;53.668;10.008;2023-12-29T13:00:38;10.77;;;1.30;;
4732;SDS011;2380;53.668;10.008;2023-12-29T13:03:08;16.97;;;2.60;;
4732;SDS011;2380;53.668;10.008;2023-12-29T13:05:38;11.40;;;1.03;;
4732;SDS011;2380;53.668;10.008;2023-12-29T13:08:08;9.37;;;1.83;;
4732;SDS011;2380;53.668;10.008;2023-12-29T13:10:40;9.17;;;1.30;;
4732;SDS011;2380;53.668;10.008;2023-12-29T13:13:10;5.87;;;2.57;;
4732;SDS011;2380;53.668;10.008;2023-12-29T13:15:49;6.43;;;1.57;;
4732;SDS011;2380;53.668;10.008;2023-12-29T13:18:28;3.03;;;1.20;;
4732;SDS011;2380;53.668;10.008;2023-12-29T13:20:58;3.37;;;1.03;;
4732;SDS011;2380;53.668;10.008;2023-12-29T13:23:28;8.47;;;1.87;;
4732;SDS011;2380;53.668;10.008;2023-12-29T13:25:58;3.80;;;1.03;;
4732;SDS011;2380;53.668;10.008;2023-12-29T13:28:29;9.10;;;1.40;;
4732;SDS011;2380;53.668;10.008;2023-12-29T13:31:05;6.63;;;1.27;;
4732;SDS011;2380;53.668;10.008;2023-12-29T13:33:39;3.00;;;1.07;;
4732;SDS011;2380;53.668;10.008;2023-12-29T13:36:18;7.53;;;1.93;;
4732;SDS011;2380;53.668;10.008;2023-12-29T13:38:53;15.80;;;2.50;;
4732;SDS011;2380;53.668;10.008;2023-12-29T13:41:25;1.83;;;0.97;;
4732;SDS011;2380;53.668;10.008;2023-12-29T13:43:58;8.37;;;1.43;;
4732;SDS011;2380;53.668;10.008;2023-12-29T13:46:30;5.10;;;1.67;;
4732;SDS011;2380;53.668;10.008;2023-12-29T13:49:00;7.67;;;2.20;;
4732;SDS011;2380;53.668;10.008;2023-12-29T13:51:31;5.90;;;1.40;;
4732;SDS011;2380;53.668;10.008;2023-12-29T13:54:01;2.20;;;0.60;;
4732;SDS011;2380;53.668;10.008;2023-12-29T13:56:30;6.83;;;1.63;;
4732;SDS011;2380;53.668;10.008;2023-12-29T13:59:00;19.00;;;2.13;;
4732;SDS011;2380;53.668;10.008;2023-12-29T14:01:38;11.50;;;1.40;;
4732;SDS011;2380;53.668;10.008;2023-12-29T14:04:10;11.10;;;1.60;;
4732;SDS011;2380;53.668;10.008;2023-12-29T14:06:42;9.57;;;1.70;;
4732;SDS011;2380;53.668;10.008;2023-12-29T14:09:18;5.70;;;1.67;;
4732;SDS011;2380;53.668;10.008;2023-12-29T14:11:48;4.87;;;1.30;;
4732;SDS011;2380;53.668;10.008;2023-12-29T14:14:21;8.30;;;1.37;;
4732;SDS011;2380;53.668;10.008;2023-12-29T14:16:54;9.63;;;1.90;;
4732;SDS011;2380;53.668;10.008;2023-12-29T14:19:24;13.00;;;2.43;;
4732;SDS011;2380;53.668;10.008;2023-12-29T14:21:54;9.80;;;1.90;;
4732;SDS011;2380;53.668;10.008;2023-12-29T14:24:23;6.83;;;1.70;;
4732;SDS011;2380;53.668;10.008;2023-12-29T14:26:54;11.60;;;2.63;;
4732;SDS011;2380;53.668;10.008;2023-12-29T14:29:26;8.50;;;1.80;;
4732;SDS011;2380;53.668;10.008;2023-12-29T14:31:58;11.53;;;1.93;;
4732;SDS011;2380;53.668;10.008;2023-12-29T14:34:28;4.93;;;1.80;;
4732;SDS011;2380;53.668;10.008;2023-12-29T14:36:57;15.33;;;2.00;;
4732;SDS011;2380;53.668;10.008;2023-12-29T14:39:27;9.37;;;2.13;;
4732;SDS011;2380;53.668;10.008;2023-12-29T14:41:56;9.67;;;2.43;;
4732;SDS011;2380;53.668;10.008;2023-12-29T14:44:26;13.43;;;2.27;;
4732;SDS011;2380;53.668;10.008;2023-12-29T14:46:58;6.57;;;1.87;;
4732;SDS011;2380;53.668;10.008;2023-12-29T14:49:28;12.27;;;2.47;;
4732;SDS011;2380;53.668;10.008;2023-12-29T14:51:57;13.50;;;2.60;;
4732;SDS011;2380;53.668;10.008;2023-12-29T14:54:27;6.40;;;1.70;;
4732;SDS011;2380;53.668;10.008;2023-12-29T14:56:57;9.23;;;1.30;;
4732;SDS011;2380;53.668;10.008;2023-12-29T14:59:36;7.03;;;1.10;;
4732;SDS011;2380;53.668;10.008;2023-12-29T15:02:09;11.50;;;1.97;;
4732;SDS011;2380;53.668;10.008;2023-12-29T15:04:39;6.40;;;1.97;;
4732;SDS011;2380;53.668;10.008;2023-12-29T15:07:09;8.70;;;2.03;;
4732;SDS011;2380;53.668;10.008;2023-12-29T15:09:38;9.13;;;1.30;;
4732;SDS011;2380;53.668;10.008;2023-12-29T15:12:08;1.90;;;0.77;;
4732;SDS011;2380;53.668;10.008;2023-12-29T15:14:37;15.20;;;2.40;;
4732;SDS011;2380;53.668;10.008;2023-12-29T15:17:10;15.90;;;2.70;;
4732;SDS011;2380;53.668;10.008;2023-12-29T15:19:40;6.40;;;1.97;;
4732;SDS011;2380;53.668;10.008;2023-12-29T15:22:09;8.40;;;1.27;;
4732;SDS011;2380;53.668;10.008;2023-12-29T15:24:39;6.23;;;1.40;;